Terminal Aerodrome Forecast
Issued by NWS Corpus Christi, TX

Current Version | Previous Version | Text Only | Print | Product List | Glossary Off
Versions: 1 2 3 4 5 6 7 8 9 10 11 12 13 14

000
FTUS44 KCRP 171743
TAFCRP
TAF
KCRP 171743Z 1718/1818 16020G28KT P6SM SCT035
     FM180300 16015G22KT P6SM SCT025
     FM180600 18010KT P6SM SCT015
      TEMPO 1808/1812 FEW007 BKN015
     FM181500 20012KT P6SM BKN035=

USA.gov is the U.S. government's official web portal to all federal, state and local government web resources and services.